Terminal Aerodrome Forecast
Issued by NWS

Home | Current Version | Previous Version | Text Only | Print | Product List | Glossary On
Versions: 1 2 3 4 5 6 7 8 9 10 11 12 13 14
000
FTUS41 KPBZ 272300
TAFHLG
TAF
KHLG 272320Z 2800/2824 21011KT P6SM VCSH BKN050
      TEMPO 2801/2804 5SM -SHRA OVC025
     FM280400 25009KT 5SM -SHRA SCT008 OVC015
     FM280900 27004KT 4SM -RA BR OVC007
     FM281500 30006KT P6SM OVC020=

USA.gov is the U.S. government's official web portal to all federal, state and local government web resources and services.